Gheorgheni, Romania
Current Conditions -  °F | °C
As of 12:00 PM on Saturday 25 Oct 2014 (Local Time) from LRTM Reporting Station
Few Clouds Few Clouds  
Wind Chill: 45°   Ceiling: Unl
Heat Index: 45°   Visibility: 6mi
Dew Point: 36°   Wind: 2mph
Humidity: 71%   Direction: NA
Pressure: 30.3"   Gusts: NA
Location:  46.72°N, 25.59°E
Report Text: LRTM 250900Z VRB02KT 9999 FEW046 07/02 Q1026
Loading
Personal Weather Stations






























Interactive Weather Map
Tropical Storm Tracking
New forecast layout! Learn more

10-Day Weather Forecast

Advertisements
Track Severe Weather on mobile